createdAt,value
2022-12-18T00:03:30.562Z,4.77
2022-12-18T00:08:50.615Z,5.10
2022-12-18T00:14:10.901Z,4.60
2022-12-18T00:19:30.948Z,5.70
2022-12-18T00:24:51.076Z,5.37
2022-12-18T00:30:11.105Z,4.57
2022-12-18T00:35:31.755Z,4.10
2022-12-18T00:40:51.947Z,4.70
2022-12-18T00:46:12.182Z,4.67
2022-12-18T00:51:32.152Z,5.30
2022-12-18T00:56:52.309Z,5.03
2022-12-18T01:02:12.537Z,4.83
2022-12-18T01:07:32.539Z,4.67
2022-12-18T01:12:52.691Z,4.40
2022-12-18T01:18:12.770Z,5.17
2022-12-18T01:23:32.894Z,4.93
2022-12-18T01:28:52.977Z,5.63
2022-12-18T01:34:13.186Z,5.00
2022-12-18T01:39:33.337Z,4.40
2022-12-18T01:44:53.603Z,4.60
2022-12-18T01:50:13.835Z,4.73
2022-12-18T01:55:33.982Z,4.50
2022-12-18T02:00:54.014Z,4.10
2022-12-18T02:06:14.141Z,4.63
2022-12-18T02:11:34.186Z,3.80
2022-12-18T02:16:54.297Z,4.73
2022-12-18T02:22:14.277Z,4.50
2022-12-18T02:27:34.564Z,4.47
2022-12-18T02:32:54.646Z,4.30
2022-12-18T02:38:14.787Z,4.07
2022-12-18T02:43:34.967Z,4.17
2022-12-18T02:48:55.122Z,4.20
2022-12-18T02:54:15.224Z,4.00
2022-12-18T02:59:35.482Z,4.17
2022-12-18T03:04:55.598Z,4.23
2022-12-18T03:10:15.809Z,4.03
2022-12-18T03:15:35.954Z,3.97
2022-12-18T03:20:56.125Z,4.30
2022-12-18T03:26:16.217Z,4.00
2022-12-18T03:31:36.301Z,4.17
2022-12-18T03:36:56.417Z,3.70
2022-12-18T03:42:16.627Z,3.47
2022-12-18T03:47:36.803Z,4.13
2022-12-18T03:52:56.951Z,3.63
2022-12-18T03:58:17.088Z,4.37
2022-12-18T04:03:37.361Z,3.33
2022-12-18T04:08:57.301Z,3.90
2022-12-18T04:14:18.319Z,3.73
2022-12-18T04:19:38.449Z,3.80
2022-12-18T04:24:58.707Z,3.63
2022-12-18T04:30:18.899Z,3.70
2022-12-18T04:35:39.351Z,3.37
2022-12-18T04:40:59.425Z,3.70
2022-12-18T04:46:19.620Z,3.77
2022-12-18T04:51:39.673Z,3.70
2022-12-18T04:56:59.813Z,3.37
2022-12-18T05:02:20.076Z,3.50
2022-12-18T05:07:40.098Z,3.80
2022-12-18T05:13:01.332Z,3.10
2022-12-18T05:18:21.445Z,3.57
2022-12-18T05:23:41.918Z,3.77
2022-12-18T05:29:02.286Z,3.40
2022-12-18T05:34:22.442Z,3.57
2022-12-18T05:39:42.758Z,3.00
2022-12-18T05:45:02.836Z,3.80
2022-12-18T05:50:23.037Z,3.30
2022-12-18T05:55:43.094Z,3.13
2022-12-18T06:01:03.296Z,2.80
2022-12-18T06:06:23.434Z,3.03
2022-12-18T06:11:43.722Z,2.80
2022-12-18T06:17:03.782Z,3.23
2022-12-18T06:22:24.059Z,3.07
2022-12-18T06:27:44.190Z,3.27
2022-12-18T06:33:04.418Z,3.03
2022-12-18T06:38:24.585Z,3.53
2022-12-18T06:43:44.939Z,3.03
2022-12-18T06:49:04.975Z,3.27
2022-12-18T06:54:25.073Z,3.00
2022-12-18T06:59:45.239Z,2.97
2022-12-18T07:05:10.496Z,2.80
2022-12-18T07:10:31.027Z,2.53
2022-12-18T07:15:51.209Z,3.00
2022-12-18T07:21:11.307Z,3.00
2022-12-18T07:26:31.442Z,2.50
2022-12-18T07:31:51.471Z,2.73
2022-12-18T07:37:11.499Z,2.43
2022-12-18T07:42:31.518Z,3.03
2022-12-18T07:47:51.653Z,2.60
2022-12-18T07:53:11.782Z,2.90
2022-12-18T07:58:31.903Z,2.73
2022-12-18T08:03:52.400Z,3.40
2022-12-18T08:09:12.765Z,2.97
2022-12-18T08:14:32.903Z,2.40
2022-12-18T08:19:53.207Z,2.40
2022-12-18T08:25:13.406Z,3.00
2022-12-18T08:30:33.647Z,2.50
2022-12-18T08:35:53.683Z,2.63
2022-12-18T08:41:13.788Z,2.50
2022-12-18T08:46:33.979Z,2.47
2022-12-18T08:51:54.119Z,2.40
2022-12-18T08:57:14.205Z,2.53
2022-12-18T09:02:34.384Z,2.40
2022-12-18T09:07:54.380Z,2.43
2022-12-18T09:13:14.596Z,2.83
2022-12-18T09:18:34.725Z,1.90
2022-12-18T09:23:54.972Z,2.47
2022-12-18T09:29:15.142Z,2.10
2022-12-18T09:34:35.445Z,2.40
2022-12-18T09:39:55.615Z,2.23
2022-12-18T09:45:15.706Z,2.17
2022-12-18T09:50:35.763Z,2.17
2022-12-18T09:55:56.479Z,2.37
2022-12-18T10:01:16.738Z,2.37
2022-12-18T10:06:36.957Z,2.20
2022-12-18T10:11:57.037Z,2.27
2022-12-18T10:17:17.219Z,2.60
2022-12-18T10:22:37.736Z,2.00
2022-12-18T10:27:57.905Z,2.40
2022-12-18T10:33:18.056Z,2.03
2022-12-18T10:38:38.431Z,2.60
2022-12-18T10:43:58.466Z,2.10
2022-12-18T10:49:19.185Z,2.43
2022-12-18T10:54:39.330Z,2.33
2022-12-18T10:59:59.474Z,1.80
2022-12-18T11:05:19.530Z,1.97
2022-12-18T11:10:39.943Z,2.43
2022-12-18T11:16:00.206Z,1.97
2022-12-18T11:21:20.221Z,2.07
2022-12-18T11:26:40.360Z,2.00
2022-12-18T11:32:01.193Z,2.27
2022-12-18T11:37:21.227Z,2.40
2022-12-18T11:42:41.509Z,2.20
2022-12-18T11:48:01.767Z,1.70
2022-12-18T11:53:22.030Z,2.80
2022-12-18T11:58:42.450Z,1.80
2022-12-18T12:04:02.930Z,2.10
2022-12-18T12:09:22.886Z,1.97
2022-12-18T12:14:43.181Z,1.93
2022-12-18T12:20:03.385Z,2.20
2022-12-18T12:25:23.647Z,2.20
2022-12-18T12:30:43.803Z,2.60
2022-12-18T12:36:03.936Z,2.10
2022-12-18T12:41:23.969Z,1.83
2022-12-18T12:46:44.160Z,1.93
2022-12-18T12:52:04.259Z,1.80
2022-12-18T12:57:25.095Z,2.30
2022-12-18T13:02:45.597Z,2.20
2022-12-18T13:08:07.542Z,2.40
2022-12-18T13:13:27.387Z,1.90
2022-12-18T13:18:47.676Z,1.80
2022-12-18T13:24:08.807Z,2.27
2022-12-18T13:29:29.082Z,2.00
2022-12-18T13:34:49.184Z,2.00
2022-12-18T13:40:09.579Z,1.50
2022-12-18T13:45:30.063Z,2.27
2022-12-18T13:50:50.190Z,1.97
2022-12-18T13:56:10.363Z,2.40
2022-12-18T14:01:30.672Z,1.97
2022-12-18T14:06:50.610Z,2.23
2022-12-18T14:12:11.371Z,1.90
2022-12-18T14:17:31.503Z,2.20
2022-12-18T14:22:52.371Z,1.90
2022-12-18T14:28:12.617Z,2.00
2022-12-18T14:33:33.889Z,2.30
2022-12-18T14:38:53.636Z,2.20
2022-12-18T14:44:13.843Z,1.93
2022-12-18T14:49:33.972Z,1.93
2022-12-18T14:54:54.066Z,1.77
2022-12-18T15:00:14.168Z,1.70
2022-12-18T15:05:34.356Z,1.60
2022-12-18T15:10:54.510Z,1.80
2022-12-18T15:16:14.750Z,2.00
2022-12-18T15:21:34.713Z,2.07
2022-12-18T15:26:55.042Z,1.87
2022-12-18T15:32:15.160Z,2.23
2022-12-18T15:37:35.290Z,2.10
2022-12-18T15:42:55.257Z,2.13
2022-12-18T15:48:15.494Z,2.47
2022-12-18T15:53:35.564Z,1.67
2022-12-18T15:58:55.776Z,2.07
2022-12-18T16:04:15.885Z,2.00
2022-12-18T16:09:36.040Z,2.07
2022-12-18T16:14:56.126Z,2.23
2022-12-18T16:20:16.266Z,2.10
2022-12-18T16:25:36.329Z,2.07
2022-12-18T16:30:56.372Z,2.03
2022-12-18T16:36:16.592Z,1.97
2022-12-18T16:41:36.735Z,2.00
2022-12-18T16:46:57.027Z,1.90
2022-12-18T16:52:17.294Z,2.53
2022-12-18T16:57:38.418Z,1.93
2022-12-18T17:02:58.762Z,2.37
2022-12-18T17:08:19.266Z,2.30
2022-12-18T17:13:39.819Z,2.17
2022-12-18T17:19:00.098Z,2.17
2022-12-18T17:24:20.252Z,2.10
2022-12-18T17:29:46.841Z,2.10
2022-12-18T17:35:08.207Z,1.80
2022-12-18T17:40:28.303Z,1.97
2022-12-18T17:45:48.425Z,2.40
2022-12-18T17:51:08.569Z,2.20
2022-12-18T17:56:28.715Z,2.07
2022-12-18T18:01:48.918Z,2.60
2022-12-18T18:07:08.893Z,2.40
2022-12-18T18:12:28.921Z,2.20
2022-12-18T18:17:49.014Z,2.10
2022-12-18T18:23:09.190Z,2.17
2022-12-18T18:28:29.264Z,2.30
2022-12-18T18:33:49.428Z,2.37
2022-12-18T18:39:09.812Z,2.20
2022-12-18T18:44:30.592Z,2.50
2022-12-18T18:49:50.804Z,2.37
2022-12-18T18:55:13.560Z,2.00
2022-12-18T19:00:36.448Z,2.10
2022-12-18T19:05:56.535Z,2.33
2022-12-18T19:11:16.638Z,2.83
2022-12-18T19:16:38.983Z,2.30
2022-12-18T19:21:58.955Z,2.17
2022-12-18T19:27:19.258Z,2.47
2022-12-18T19:32:39.397Z,2.20
2022-12-18T19:37:59.581Z,2.43
2022-12-18T19:43:19.800Z,2.60
2022-12-18T19:48:41.230Z,2.57
2022-12-18T19:54:02.119Z,2.57
2022-12-18T19:59:22.381Z,2.50
2022-12-18T20:04:42.590Z,3.10
2022-12-18T20:10:08.647Z,3.00
2022-12-18T20:15:29.274Z,2.90
2022-12-18T20:20:49.414Z,2.80
2022-12-18T20:26:11.133Z,2.77
2022-12-18T20:31:31.370Z,3.03
2022-12-18T20:36:51.547Z,2.90
2022-12-18T20:42:12.605Z,3.03
2022-12-18T20:47:32.708Z,2.90
2022-12-18T20:52:52.855Z,3.13
2022-12-18T20:58:13.170Z,3.27
2022-12-18T21:03:33.251Z,3.03
2022-12-18T21:08:53.417Z,3.00
2022-12-18T21:14:13.459Z,3.70
2022-12-18T21:19:33.634Z,3.40
2022-12-18T21:24:53.758Z,3.50
2022-12-18T21:30:13.923Z,3.13
2022-12-18T21:35:34.027Z,3.43
2022-12-18T21:40:54.053Z,3.83
2022-12-18T21:46:14.122Z,3.80
2022-12-18T21:51:34.248Z,3.50
2022-12-18T21:56:54.226Z,3.73
2022-12-18T22:02:14.493Z,3.37
2022-12-18T22:07:34.541Z,4.00
2022-12-18T22:12:55.180Z,3.80
2022-12-18T22:18:15.001Z,3.67
2022-12-18T22:23:35.230Z,3.60
2022-12-18T22:28:55.370Z,3.50
2022-12-18T22:34:18.314Z,4.10
2022-12-18T22:39:40.625Z,3.40
2022-12-18T22:45:01.237Z,3.97
2022-12-18T22:50:21.415Z,3.40
2022-12-18T22:55:41.643Z,3.80
2022-12-18T23:01:01.906Z,3.60
2022-12-18T23:06:22.117Z,4.00
2022-12-18T23:11:42.270Z,3.40
2022-12-18T23:17:02.470Z,3.90
2022-12-18T23:22:22.598Z,4.00
2022-12-18T23:27:42.784Z,4.20
2022-12-18T23:33:02.787Z,4.30
2022-12-18T23:38:23.011Z,3.97
2022-12-18T23:43:43.202Z,3.87
2022-12-18T23:49:05.848Z,4.23
2022-12-18T23:54:33.483Z,4.13
2022-12-18T23:59:54.154Z,3.57
